createdAt,value
2019-05-14T00:01:42.259Z,98020.81
2019-05-14T00:04:11.741Z,98021.20
2019-05-14T00:06:41.839Z,98022.11
2019-05-14T00:09:12.129Z,98024.17
2019-05-14T00:11:42.333Z,98022.20
2019-05-14T00:14:12.283Z,98019.17
2019-05-14T00:16:42.391Z,98016.33
2019-05-14T00:19:11.954Z,98021.92
2019-05-14T00:21:42.312Z,98014.27
2019-05-14T00:24:12.251Z,98018.69
2019-05-14T00:26:42.544Z,98008.76
2019-05-14T00:29:11.854Z,98006.98
2019-05-14T00:31:42.523Z,98000.52
2019-05-14T00:34:11.296Z,97996.11
2019-05-14T00:36:42.169Z,98002.17
2019-05-14T00:39:11.524Z,98001.67
2019-05-14T00:41:41.964Z,98003.08
2019-05-14T00:44:32.338Z,98002.48
2019-05-14T00:47:02.155Z,98001.70
2019-05-14T00:49:31.850Z,97996.35
2019-05-14T00:52:02.299Z,97997.73
2019-05-14T00:54:52.235Z,97991.94
2019-05-14T00:57:22.540Z,97986.03
2019-05-14T00:59:52.123Z,97979.94
2019-05-14T01:02:22.443Z,97977.59
2019-05-14T01:04:51.551Z,97973.88
2019-05-14T01:07:42.354Z,97974.30
2019-05-14T01:10:51.452Z,97980.67
2019-05-14T01:13:21.909Z,97981.83
2019-05-14T01:16:11.976Z,97985.38
2019-05-14T01:18:41.730Z,97978.30
2019-05-14T01:21:11.792Z,97980.73
2019-05-14T01:26:52.240Z,97977.71
2019-05-14T01:29:21.921Z,97973.88
2019-05-14T01:35:01.378Z,97978.66
2019-05-14T01:37:31.232Z,97979.86
2019-05-14T01:40:01.144Z,97972.39
2019-05-14T01:42:32.071Z,97969.66
2019-05-14T01:45:27.251Z,97968.97
2019-05-14T01:47:52.074Z,97961.48
2019-05-14T01:50:22.555Z,97951.75
2019-05-14T01:52:52.175Z,97957.70
2019-05-14T01:55:22.827Z,97951.73
2019-05-14T01:57:51.986Z,97950.84
2019-05-14T02:00:22.025Z,97956.71
2019-05-14T02:02:52.451Z,97952.39
2019-05-14T02:05:22.890Z,97950.96
2019-05-14T02:08:12.123Z,97943.66
2019-05-14T02:11:01.624Z,97945.44
2019-05-14T02:13:32.349Z,97939.61
2019-05-14T02:16:02.232Z,97936.95
2019-05-14T02:18:33.003Z,97933.81
2019-05-14T02:21:22.947Z,97940.38
2019-05-14T02:23:53.465Z,97938.11
2019-05-14T02:26:42.463Z,97942.27
2019-05-14T02:29:12.483Z,97934.80
2019-05-14T02:31:42.626Z,97939.91
2019-05-14T02:36:49.417Z,97929.36
2019-05-14T02:39:19.637Z,97933.44
2019-05-14T02:41:49.984Z,97931.38
2019-05-14T02:47:12.816Z,97923.55
2019-05-14T02:49:41.480Z,97930.56
2019-05-14T02:54:45.430Z,97925.53
2019-05-14T02:57:14.289Z,97924.64
2019-05-14T02:59:43.596Z,97923.37
2019-05-14T03:02:32.194Z,97918.03
2019-05-14T03:07:50.582Z,97916.31
2019-05-14T03:10:19.985Z,97914.60
2019-05-14T03:13:09.568Z,97903.38
2019-05-14T03:15:39.571Z,97899.02
2019-05-14T03:18:09.196Z,97901.47
2019-05-14T03:20:39.228Z,97898.77
2019-05-14T03:23:15.635Z,97899.03
2019-05-14T03:25:40.331Z,97905.45
2019-05-14T03:28:09.590Z,97911.60
2019-05-14T03:30:42.387Z,97912.53
2019-05-14T03:33:13.246Z,97914.11
2019-05-14T03:36:08.223Z,97912.50
2019-05-14T03:38:30.486Z,97914.20
2019-05-14T03:41:00.653Z,97918.30
2019-05-14T03:44:10.719Z,97914.07
2019-05-14T03:46:49.738Z,97916.84
2019-05-14T03:49:10.701Z,97915.22
2019-05-14T03:51:39.690Z,97907.80
2019-05-14T03:54:12.638Z,97908.95
2019-05-14T03:56:40.104Z,97901.95
2019-05-14T03:59:09.847Z,97910.00
2019-05-14T04:01:40.475Z,97909.55
2019-05-14T04:04:30.946Z,97907.08
2019-05-14T04:07:39.588Z,97912.95
2019-05-14T04:10:10.277Z,97904.84
2019-05-14T04:13:19.957Z,97902.59
2019-05-14T04:16:09.575Z,97906.83
2019-05-14T04:22:12.319Z,97914.08
2019-05-14T04:25:21.149Z,97916.62
2019-05-14T04:28:30.073Z,97909.66
2019-05-14T04:31:00.552Z,97911.03
2019-05-14T04:33:30.692Z,97907.96
2019-05-14T04:36:00.912Z,97908.50
2019-05-14T04:38:30.454Z,97910.95
2019-05-14T04:41:00.265Z,97907.80
2019-05-14T04:46:20.065Z,97906.21
2019-05-14T04:48:50.935Z,97895.73
2019-05-14T04:51:20.306Z,97899.38
2019-05-14T04:53:50.177Z,97897.56
2019-05-14T04:56:19.915Z,97899.16
2019-05-14T04:58:50.527Z,97893.21
2019-05-14T05:01:21.085Z,97889.91
2019-05-14T05:06:39.835Z,97896.17
2019-05-14T05:09:50.171Z,97904.13
2019-05-14T05:12:19.989Z,97903.16
2019-05-14T05:14:49.441Z,97897.46
2019-05-14T05:17:19.755Z,97891.27
2019-05-14T05:19:51.537Z,97893.16
2019-05-14T05:22:19.905Z,97893.06
2019-05-14T05:27:38.323Z,97888.83
2019-05-14T05:30:49.067Z,97889.72
2019-05-14T05:33:18.742Z,97889.14
2019-05-14T05:35:48.728Z,97894.30
2019-05-14T05:38:18.401Z,97892.81
2019-05-14T05:40:48.605Z,97893.98
2019-05-14T05:43:19.185Z,97895.16
2019-05-14T05:45:48.667Z,97890.01
2019-05-14T05:51:13.300Z,97891.16
2019-05-14T05:53:41.896Z,97884.59
2019-05-14T05:56:10.533Z,97898.20
2019-05-14T05:58:39.874Z,97890.43
2019-05-14T06:01:09.920Z,97889.16
2019-05-14T06:03:39.822Z,97888.78
2019-05-14T06:06:13.380Z,97877.80
2019-05-14T06:08:39.056Z,97880.68
2019-05-14T06:11:08.402Z,97873.81
2019-05-14T06:13:39.132Z,97872.98
2019-05-14T06:16:09.573Z,97869.71
2019-05-14T06:18:39.454Z,97873.16
2019-05-14T06:21:09.385Z,97867.92
2019-05-14T06:23:39.432Z,97861.86
2019-05-14T06:26:11.602Z,97859.40
2019-05-14T06:28:40.767Z,97854.31
2019-05-14T06:31:09.947Z,97854.52
2019-05-14T06:33:39.660Z,97854.09
2019-05-14T06:36:49.412Z,97850.41
2019-05-14T06:39:18.366Z,97844.33
2019-05-14T06:41:49.059Z,97846.69
2019-05-14T06:44:18.935Z,97844.34
2019-05-14T06:46:48.730Z,97840.05
2019-05-14T06:49:18.310Z,97846.17
2019-05-14T06:51:49.045Z,97846.17
2019-05-14T06:54:19.611Z,97848.36
2019-05-14T06:56:49.174Z,97845.73
2019-05-14T06:59:18.286Z,97844.70
2019-05-14T07:01:49.003Z,97843.69
2019-05-14T07:04:18.534Z,97843.83
2019-05-14T07:06:48.525Z,97837.08
2019-05-14T07:09:18.457Z,97842.35
2019-05-14T07:11:49.116Z,97840.14
2019-05-14T07:14:18.937Z,97836.90
2019-05-14T07:16:48.893Z,97831.97
2019-05-14T07:19:19.231Z,97828.04
2019-05-14T07:22:08.937Z,97827.98
2019-05-14T07:24:40.436Z,97819.97
2019-05-14T07:27:09.390Z,97811.37
2019-05-14T07:29:38.882Z,97806.42
2019-05-14T07:32:09.185Z,97804.71
2019-05-14T07:34:39.134Z,97813.25
2019-05-14T07:37:09.423Z,97800.82
2019-05-14T07:39:58.027Z,97802.59
2019-05-14T07:42:28.945Z,97801.31
2019-05-14T07:44:58.893Z,97800.11
2019-05-14T07:47:29.229Z,97791.20
2019-05-14T07:49:59.234Z,97789.30
2019-05-14T07:52:28.502Z,97791.95
2019-05-14T07:54:58.763Z,97794.95
2019-05-14T07:57:28.705Z,97790.66
2019-05-14T07:59:58.821Z,97791.80
2019-05-14T08:02:29.038Z,97783.83
2019-05-14T08:04:58.142Z,97776.62
2019-05-14T08:07:48.154Z,97773.49
2019-05-14T08:10:18.586Z,97770.05
2019-05-14T08:12:48.656Z,97769.58
2019-05-14T08:15:58.577Z,97770.95
2019-05-14T08:18:29.107Z,97764.68
2019-05-14T08:20:59.161Z,97769.63
2019-05-14T08:23:28.347Z,97762.08
2019-05-14T08:25:58.832Z,97765.20
2019-05-14T08:28:29.140Z,97757.98
2019-05-14T08:30:59.219Z,97769.46
2019-05-14T08:33:29.014Z,97767.92
2019-05-14T08:35:58.403Z,97770.79
2019-05-14T08:38:28.624Z,97775.16
2019-05-14T08:40:58.894Z,97774.27
2019-05-14T08:43:29.105Z,97776.50
2019-05-14T08:45:58.690Z,97768.06
2019-05-14T08:48:29.573Z,97770.88
2019-05-14T08:50:58.900Z,97765.25
2019-05-14T08:53:28.807Z,97769.16
2019-05-14T08:55:58.855Z,97763.96
2019-05-14T08:58:30.120Z,97761.14
2019-05-14T09:00:58.924Z,97769.20
2019-05-14T09:04:09.139Z,97762.00
2019-05-14T09:06:58.470Z,97761.34
2019-05-14T09:09:29.041Z,97759.52
2019-05-14T09:11:59.714Z,97758.70
2019-05-14T09:14:28.242Z,97756.80
2019-05-14T09:16:59.879Z,97754.73
2019-05-14T09:19:28.880Z,97755.81
2019-05-14T09:21:58.840Z,97752.89
2019-05-14T09:24:29.070Z,97742.73
2019-05-14T09:26:59.195Z,97744.39
2019-05-14T09:29:29.758Z,97749.21
2019-05-14T09:31:59.347Z,97743.83
2019-05-14T09:34:29.344Z,97749.59
2019-05-14T09:36:59.414Z,97747.98
2019-05-14T09:39:48.838Z,97746.86
2019-05-14T09:42:19.455Z,97742.02
2019-05-14T09:44:49.074Z,97742.29
2019-05-14T09:47:19.081Z,97749.02
2019-05-14T09:49:49.280Z,97749.75
2019-05-14T09:52:18.667Z,97746.91
2019-05-14T09:54:49.621Z,97745.82
2019-05-14T09:57:19.049Z,97746.82
2019-05-14T09:59:49.099Z,97752.39
2019-05-14T10:02:17.721Z,97746.50
2019-05-14T10:04:48.982Z,97745.05
2019-05-14T10:07:16.957Z,97743.66
2019-05-14T10:09:45.589Z,97752.08
2019-05-14T10:12:14.264Z,97742.61
2019-05-14T10:14:42.822Z,97749.21
2019-05-14T10:17:11.513Z,97744.40
2019-05-14T10:19:40.085Z,97740.48
2019-05-14T10:22:08.775Z,97748.70
2019-05-14T10:24:38.657Z,97747.40
2019-05-14T10:27:08.945Z,97740.48
2019-05-14T10:29:39.467Z,97741.92
2019-05-14T10:32:09.063Z,97733.16
2019-05-14T10:34:37.725Z,97741.95
2019-05-14T10:37:08.665Z,97744.27
2019-05-14T10:39:39.084Z,97733.22
2019-05-14T10:42:08.853Z,97725.47
2019-05-14T10:44:38.732Z,97726.21
2019-05-14T10:47:29.231Z,97720.52
2019-05-14T10:49:59.000Z,97725.45
2019-05-14T10:52:28.898Z,97724.16
2019-05-14T10:54:59.035Z,97711.17
2019-05-14T10:57:28.958Z,97712.75
2019-05-14T10:59:59.114Z,97709.10
2019-05-14T11:02:29.315Z,97705.47
2019-05-14T11:04:59.487Z,97709.91
2019-05-14T11:07:29.272Z,97708.03
2019-05-14T11:09:58.349Z,97702.28
2019-05-14T11:12:29.549Z,97697.48
2019-05-14T11:14:57.440Z,97700.45
2019-05-14T11:17:28.860Z,97697.87
2019-05-14T11:19:58.547Z,97699.99
2019-05-14T11:22:28.889Z,97684.27
2019-05-14T11:24:59.155Z,97674.25
2019-05-14T11:27:29.247Z,97668.16
2019-05-14T11:29:58.662Z,97665.38
2019-05-14T11:32:29.130Z,97656.97
2019-05-14T11:34:59.212Z,97660.63
2019-05-14T11:37:29.078Z,97662.82
2019-05-14T11:39:58.168Z,97655.84
2019-05-14T11:42:31.376Z,97655.30
2019-05-14T11:44:58.680Z,97657.84
2019-05-14T11:47:27.275Z,97660.80
2019-05-14T11:49:59.016Z,97663.17
2019-05-14T11:52:28.622Z,97665.26
2019-05-14T11:54:58.491Z,97659.38
2019-05-14T11:57:27.012Z,97668.97
2019-05-14T11:59:58.003Z,97656.23
2019-05-14T12:02:26.115Z,97651.44
2019-05-14T12:04:54.738Z,97641.14
2019-05-14T12:07:23.376Z,97642.27
2019-05-14T12:09:52.459Z,97636.66
2019-05-14T12:12:22.471Z,97638.44
2019-05-14T12:14:51.115Z,97630.70
2019-05-14T12:17:19.794Z,97635.88
2019-05-14T12:19:48.651Z,97625.14
2019-05-14T12:22:19.257Z,97630.89
2019-05-14T12:24:49.648Z,97635.81
2019-05-14T12:27:19.660Z,97629.28
2019-05-14T12:29:49.837Z,97631.58
2019-05-14T12:32:19.058Z,97638.59
2019-05-14T12:34:49.142Z,97630.30
2019-05-14T12:37:18.622Z,97615.22
2019-05-14T12:39:48.100Z,97618.80
2019-05-14T12:42:19.260Z,97622.61
2019-05-14T12:44:47.166Z,97623.84
2019-05-14T12:47:18.597Z,97627.20
2019-05-14T12:49:48.160Z,97622.35
2019-05-14T12:52:25.328Z,97620.02
2019-05-14T12:54:46.957Z,97614.58
2019-05-14T12:57:15.680Z,97617.41
2019-05-14T12:59:44.356Z,97610.91
2019-05-14T13:02:13.051Z,97604.16
2019-05-14T13:04:41.688Z,97595.06
2019-05-14T13:07:10.365Z,97598.13
2019-05-14T13:09:38.923Z,97596.58
2019-05-14T13:12:11.311Z,97604.20
2019-05-14T13:14:39.430Z,97582.27
2019-05-14T13:17:09.280Z,97589.20
2019-05-14T13:19:38.932Z,97588.18
2019-05-14T13:22:13.652Z,97594.63
2019-05-14T13:24:39.438Z,97589.30
2019-05-14T13:27:09.475Z,97589.19
2019-05-14T13:29:38.825Z,97581.72
2019-05-14T13:32:12.010Z,97581.00
2019-05-14T13:34:39.599Z,97574.73
2019-05-14T13:37:08.217Z,97565.21
2019-05-14T13:40:20.811Z,97565.90
2019-05-14T13:42:49.187Z,97559.48
2019-05-14T13:48:12.323Z,97568.41
2019-05-14T13:50:41.091Z,97560.13
2019-05-14T13:53:12.866Z,97559.70
2019-05-14T13:55:46.927Z,97552.05
2019-05-14T13:58:10.458Z,97549.77
2019-05-14T14:00:39.141Z,97537.84
2019-05-14T14:03:10.032Z,97547.83
2019-05-14T14:05:39.327Z,97548.97
2019-05-14T14:08:08.911Z,97555.52
2019-05-14T14:10:45.031Z,97550.60
2019-05-14T14:13:11.312Z,97547.52
2019-05-14T14:15:39.746Z,97530.77
2019-05-14T14:18:08.438Z,97531.23
2019-05-14T14:20:39.271Z,97530.55
2019-05-14T14:23:18.966Z,97540.25
2019-05-14T14:25:39.489Z,97528.03
2019-05-14T14:28:09.914Z,97528.20
2019-05-14T14:33:48.729Z,97523.32
2019-05-14T14:36:19.610Z,97517.92
2019-05-14T14:38:49.457Z,97516.91
2019-05-14T14:41:19.350Z,97523.94
2019-05-14T14:43:53.451Z,97525.52
2019-05-14T14:46:19.591Z,97527.33
2019-05-14T14:48:49.579Z,97521.89
2019-05-14T14:51:19.668Z,97530.42
2019-05-14T14:53:59.067Z,97515.42
2019-05-14T14:56:20.142Z,97519.41
2019-05-14T14:58:49.490Z,97518.81
2019-05-14T15:01:19.950Z,97516.46
2019-05-14T15:03:50.783Z,97515.87
2019-05-14T15:06:19.934Z,97512.02
2019-05-14T15:08:49.696Z,97510.09
2019-05-14T15:11:19.041Z,97505.16
2019-05-14T15:13:48.309Z,97508.55
2019-05-14T15:16:20.081Z,97498.42
2019-05-14T15:18:49.703Z,97508.06
2019-05-14T15:21:19.300Z,97509.88
2019-05-14T15:24:05.928Z,97500.95
2019-05-14T15:26:19.582Z,97502.66
2019-05-14T15:28:49.490Z,97500.80
2019-05-14T15:31:19.165Z,97510.49
2019-05-14T15:33:51.027Z,97504.35
2019-05-14T15:36:41.341Z,97510.04
2019-05-14T15:39:49.182Z,97506.19
2019-05-14T15:42:19.377Z,97497.76
2019-05-14T15:44:55.749Z,97504.50
2019-05-14T15:47:19.789Z,97508.64
2019-05-14T15:49:48.996Z,97502.80
2019-05-14T15:52:19.373Z,97502.61
2019-05-14T15:54:50.575Z,97500.34
2019-05-14T15:57:19.602Z,97497.33
2019-05-14T15:59:48.218Z,97494.97
2019-05-14T16:02:19.882Z,97498.35
2019-05-14T16:04:47.244Z,97498.56
2019-05-14T16:07:18.473Z,97493.80
2019-05-14T16:09:49.109Z,97495.08
2019-05-14T16:12:19.613Z,97493.80
2019-05-14T16:14:48.898Z,97481.79
2019-05-14T16:17:24.329Z,97484.13
2019-05-14T16:19:48.754Z,97476.33
2019-05-14T16:22:19.451Z,97472.49
2019-05-14T16:24:56.394Z,97473.77
2019-05-14T16:27:19.766Z,97480.44
2019-05-14T16:29:49.490Z,97469.07
2019-05-14T16:32:18.275Z,97481.36
2019-05-14T16:34:48.889Z,97478.05
2019-05-14T16:37:18.209Z,97483.80
2019-05-14T16:39:48.839Z,97475.08
2019-05-14T16:42:20.586Z,97469.38
2019-05-14T16:44:48.566Z,97472.22
2019-05-14T16:47:18.821Z,97464.70
2019-05-14T16:49:48.232Z,97466.23
2019-05-14T16:52:18.199Z,97469.36
2019-05-14T16:54:48.788Z,97472.23
2019-05-14T16:57:18.607Z,97471.14
2019-05-14T16:59:49.683Z,97475.95
2019-05-14T17:02:19.149Z,97474.33
2019-05-14T17:04:48.473Z,97482.20
2019-05-14T17:07:18.236Z,97479.36
2019-05-14T17:09:49.375Z,97488.31
2019-05-14T17:12:22.110Z,97489.52
2019-05-14T17:14:48.301Z,97486.17
2019-05-14T17:17:16.937Z,97492.34
2019-05-14T17:19:47.947Z,97485.34
2019-05-14T17:22:27.692Z,97480.79
2019-05-14T17:24:48.885Z,97483.64
2019-05-14T17:27:16.741Z,97483.06
2019-05-14T17:29:45.379Z,97476.16
2019-05-14T17:32:14.034Z,97482.91
2019-05-14T17:34:42.634Z,97480.41
2019-05-14T17:37:30.577Z,97485.87
2019-05-14T17:39:59.246Z,97483.55
2019-05-14T17:42:28.513Z,97478.14
2019-05-14T17:44:58.921Z,97469.42
2019-05-14T17:47:49.100Z,97469.19
2019-05-14T17:50:18.522Z,97476.94
2019-05-14T17:52:55.312Z,97479.73
2019-05-14T17:55:18.751Z,97477.09
2019-05-14T17:57:56.719Z,97472.38
2019-05-14T18:00:58.284Z,97470.55
2019-05-14T18:03:29.048Z,97473.77
2019-05-14T18:05:58.103Z,97482.48
2019-05-14T18:08:30.006Z,97481.12
2019-05-14T18:11:01.083Z,97475.34
2019-05-14T18:13:28.447Z,97479.23
2019-05-14T18:15:58.074Z,97475.98
2019-05-14T18:18:29.119Z,97476.45
2019-05-14T18:20:58.269Z,97465.77
2019-05-14T18:23:28.950Z,97468.78
2019-05-14T18:26:08.092Z,97470.30
2019-05-14T18:28:28.964Z,97467.56
2019-05-14T18:30:58.751Z,97474.00
2019-05-14T18:33:31.208Z,97468.98
2019-05-14T18:35:59.018Z,97471.74
2019-05-14T18:38:29.116Z,97472.23
2019-05-14T18:40:58.637Z,97474.32
2019-05-14T18:43:28.930Z,97475.38
2019-05-14T18:45:58.811Z,97476.28
2019-05-14T18:48:29.190Z,97489.28
2019-05-14T18:50:59.280Z,97484.02
2019-05-14T18:53:28.259Z,97490.12
2019-05-14T18:55:59.494Z,97495.02
2019-05-14T18:58:29.306Z,97500.69
2019-05-14T19:00:58.593Z,97491.41
2019-05-14T19:03:28.686Z,97496.20
2019-05-14T19:05:58.803Z,97497.36
2019-05-14T19:08:29.053Z,97499.91
2019-05-14T19:10:59.322Z,97504.39
2019-05-14T19:13:28.250Z,97509.05
2019-05-14T19:15:59.220Z,97509.23
2019-05-14T19:18:28.911Z,97518.70
2019-05-14T19:20:59.195Z,97528.63
2019-05-14T19:23:28.945Z,97531.84
2019-05-14T19:25:59.138Z,97533.62
2019-05-14T19:28:28.843Z,97529.90
2019-05-14T19:30:59.622Z,97532.48
2019-05-14T19:33:28.702Z,97532.80
2019-05-14T19:35:58.447Z,97534.58
2019-05-14T19:38:27.083Z,97528.83
2019-05-14T19:41:02.632Z,97530.21
2019-05-14T19:43:31.387Z,97525.48
2019-05-14T19:46:00.035Z,97527.25
2019-05-14T19:48:32.656Z,97529.22
2019-05-14T19:51:18.808Z,97534.17
2019-05-14T19:53:52.302Z,97531.75
2019-05-14T19:56:19.165Z,97532.70
2019-05-14T19:58:48.575Z,97537.80
2019-05-14T20:01:19.444Z,97530.22
2019-05-14T20:04:09.570Z,97536.22
2019-05-14T20:06:39.075Z,97540.91
2019-05-14T20:09:48.317Z,97543.23
2019-05-14T20:12:18.327Z,97536.58
2019-05-14T20:14:49.049Z,97536.34
2019-05-14T20:17:19.386Z,97531.73
2019-05-14T20:19:49.386Z,97529.84
2019-05-14T20:22:19.293Z,97529.66
2019-05-14T20:24:48.399Z,97533.38
2019-05-14T20:27:58.792Z,97533.90
2019-05-14T20:30:29.476Z,97527.55
2019-05-14T20:32:59.407Z,97533.05
2019-05-14T20:35:34.641Z,97530.86
2019-05-14T20:37:59.848Z,97537.59
2019-05-14T20:40:28.593Z,97542.02
2019-05-14T20:42:58.929Z,97539.73
2019-05-14T20:45:28.948Z,97540.51
2019-05-14T20:47:58.668Z,97535.14
2019-05-14T20:50:29.099Z,97537.22
2019-05-14T20:52:59.356Z,97535.48
2019-05-14T20:55:29.377Z,97532.96
2019-05-14T20:57:58.728Z,97528.02
2019-05-14T21:00:29.157Z,97533.03
2019-05-14T21:02:59.544Z,97531.13
2019-05-14T21:05:29.315Z,97525.39
2019-05-14T21:07:58.981Z,97522.31
2019-05-14T21:10:29.110Z,97527.15
2019-05-14T21:12:58.986Z,97525.52
2019-05-14T21:15:28.662Z,97533.48
2019-05-14T21:17:59.674Z,97532.44
2019-05-14T21:20:28.509Z,97532.36
2019-05-14T21:22:58.774Z,97526.28
2019-05-14T21:25:29.751Z,97529.23
2019-05-14T21:27:59.358Z,97532.50
2019-05-14T21:30:29.686Z,97529.49
2019-05-14T21:33:00.318Z,97524.47
2019-05-14T21:35:29.279Z,97521.78
2019-05-14T21:37:59.679Z,97522.45
2019-05-14T21:40:32.157Z,97517.22
2019-05-14T21:43:00.014Z,97512.20
2019-05-14T21:45:28.709Z,97514.97
2019-05-14T21:47:59.478Z,97507.56
2019-05-14T21:50:28.917Z,97511.36
2019-05-14T21:53:19.072Z,97510.39
2019-05-14T21:55:47.960Z,97505.78
2019-05-14T21:58:19.541Z,97507.04
2019-05-14T22:01:27.700Z,97506.85
2019-05-14T22:03:59.154Z,97504.11
2019-05-14T22:06:29.108Z,97510.41
2019-05-14T22:08:59.166Z,97507.59
2019-05-14T22:11:28.363Z,97506.69
2019-05-14T22:13:58.297Z,97501.41
2019-05-14T22:16:28.237Z,97501.64
2019-05-14T22:18:59.349Z,97506.70
2019-05-14T22:21:28.940Z,97501.19
2019-05-14T22:23:59.205Z,97500.03
2019-05-14T22:26:28.371Z,97497.08
2019-05-14T22:28:58.700Z,97495.00
2019-05-14T22:31:28.936Z,97488.90
2019-05-14T22:33:58.333Z,97490.06
2019-05-14T22:36:29.378Z,97485.39
2019-05-14T22:38:58.575Z,97487.55
2019-05-14T22:41:29.168Z,97480.08
2019-05-14T22:44:00.000Z,97488.03
2019-05-14T22:46:27.877Z,97479.37
2019-05-14T22:48:58.680Z,97478.52
2019-05-14T22:54:35.116Z,97479.23
2019-05-14T22:57:03.761Z,97478.87
2019-05-14T22:59:32.517Z,97475.19
2019-05-14T23:02:01.366Z,97472.00
2019-05-14T23:04:30.152Z,97471.55
2019-05-14T23:06:58.974Z,97472.27
2019-05-14T23:09:27.762Z,97473.11
2019-05-14T23:11:58.794Z,97472.20
2019-05-14T23:14:28.215Z,97464.81
2019-05-14T23:16:58.037Z,97470.09
2019-05-14T23:19:27.542Z,97470.93
2019-05-14T23:22:18.119Z,97466.33
2019-05-14T23:27:38.328Z,97473.05
2019-05-14T23:30:06.632Z,97470.77
2019-05-14T23:32:35.287Z,97468.73
2019-05-14T23:35:24.852Z,97465.25
2019-05-14T23:37:53.586Z,97460.27
2019-05-14T23:41:02.247Z,97450.99
2019-05-14T23:43:50.525Z,97450.20
2019-05-14T23:46:20.084Z,97440.05
2019-05-14T23:48:48.678Z,97438.06
2019-05-14T23:51:18.231Z,97438.70
2019-05-14T23:53:48.503Z,97439.19
2019-05-14T23:56:19.412Z,97438.20
2019-05-14T23:58:55.849Z,97433.37
